createdAt,value
2022-11-10T00:02:44.823Z,5.30
2022-11-10T00:05:48.952Z,6.31
2022-11-10T00:08:53.432Z,6.35
2022-11-10T00:11:57.962Z,5.90
2022-11-10T00:15:20.895Z,5.25
2022-11-10T00:18:24.949Z,6.51
2022-11-10T00:21:28.964Z,6.46
2022-11-10T00:24:33.225Z,5.36
2022-11-10T00:27:37.984Z,5.20
2022-11-10T00:30:46.702Z,6.07
2022-11-10T00:33:51.616Z,6.54
2022-11-10T00:36:55.842Z,6.32
2022-11-10T00:40:00.074Z,6.22
2022-11-10T00:43:04.429Z,6.02
2022-11-10T00:46:08.745Z,6.40
2022-11-10T00:49:13.114Z,5.92
2022-11-10T00:52:17.516Z,5.79
2022-11-10T00:55:21.752Z,5.19
2022-11-10T00:58:26.203Z,6.40
2022-11-10T01:01:30.601Z,5.09
2022-11-10T01:04:34.674Z,5.59
2022-11-10T01:07:39.517Z,6.41
2022-11-10T01:10:43.803Z,6.38
2022-11-10T01:13:50.467Z,5.70
2022-11-10T01:16:54.815Z,5.06
2022-11-10T01:19:59.551Z,6.06
2022-11-10T01:23:03.792Z,6.37
2022-11-10T01:26:08.864Z,5.82
2022-11-10T01:29:13.278Z,5.64
2022-11-10T01:32:17.487Z,5.17
2022-11-10T01:35:22.216Z,6.52
2022-11-10T01:38:31.819Z,5.86
2022-11-10T01:41:36.276Z,5.34
2022-11-10T01:44:42.050Z,5.17
2022-11-10T01:47:46.683Z,6.79
2022-11-10T01:50:51.175Z,6.25
2022-11-10T01:54:09.583Z,5.85
2022-11-10T01:57:15.997Z,6.34
2022-11-10T02:00:21.134Z,6.88
2022-11-10T02:03:37.119Z,6.61
2022-11-10T02:06:43.594Z,5.28
2022-11-10T02:09:48.084Z,6.56
2022-11-10T02:12:52.705Z,6.71
2022-11-10T02:15:57.267Z,5.87
2022-11-10T02:19:23.391Z,6.76
2022-11-10T02:22:27.760Z,5.60
2022-11-10T02:25:32.962Z,5.31
2022-11-10T02:28:38.224Z,6.70
2022-11-10T02:31:42.669Z,5.34
2022-11-10T02:34:46.860Z,6.41
2022-11-10T02:37:51.141Z,5.54
2022-11-10T02:40:55.484Z,6.63
2022-11-10T02:44:00.462Z,6.60
2022-11-10T02:47:05.210Z,5.19
2022-11-10T02:50:09.524Z,5.22
2022-11-10T02:53:13.974Z,6.42
2022-11-10T02:56:18.890Z,6.05
2022-11-10T02:59:23.578Z,6.09
2022-11-10T03:02:32.056Z,6.18
2022-11-10T03:05:36.762Z,6.39
2022-11-10T03:08:41.020Z,5.93
2022-11-10T03:11:45.244Z,6.61
2022-11-10T03:14:49.972Z,6.64
2022-11-10T03:17:55.044Z,6.63
2022-11-10T03:20:59.753Z,6.61
2022-11-10T03:24:04.299Z,5.78
2022-11-10T03:27:08.754Z,5.88
2022-11-10T03:30:13.124Z,5.32
2022-11-10T03:33:18.155Z,6.35
2022-11-10T03:36:22.534Z,6.67
2022-11-10T03:39:26.962Z,6.76
2022-11-10T03:42:31.333Z,5.47
2022-11-10T03:45:35.743Z,6.77
2022-11-10T03:48:39.880Z,5.71
2022-11-10T03:51:44.119Z,6.78
2022-11-10T03:54:48.553Z,6.75
2022-11-10T03:57:52.696Z,6.48
2022-11-10T04:00:57.724Z,5.92
2022-11-10T04:04:01.871Z,6.87
2022-11-10T04:07:24.398Z,6.90
2022-11-10T04:10:28.964Z,7.03
2022-11-10T04:13:51.815Z,6.74
2022-11-10T04:16:56.448Z,7.19
2022-11-10T04:20:02.491Z,6.91
2022-11-10T04:23:25.693Z,7.28
2022-11-10T04:26:30.198Z,5.78
2022-11-10T04:29:34.824Z,6.29
2022-11-10T04:32:38.913Z,6.35
2022-11-10T04:35:43.379Z,7.28
2022-11-10T04:38:49.114Z,7.35
2022-11-10T04:41:54.447Z,7.19
2022-11-10T04:45:01.814Z,7.27
2022-11-10T04:48:06.062Z,6.64
2022-11-10T04:51:11.681Z,6.96
2022-11-10T04:54:16.429Z,5.96
2022-11-10T04:57:20.916Z,7.29
2022-11-10T05:00:25.811Z,6.04
2022-11-10T05:03:30.620Z,7.01
2022-11-10T05:06:34.750Z,6.42
2022-11-10T05:09:39.405Z,7.41
2022-11-10T05:12:43.468Z,7.40
2022-11-10T05:15:47.927Z,7.42
2022-11-10T05:18:54.249Z,7.14
2022-11-10T05:21:58.597Z,7.45
2022-11-10T05:25:03.102Z,7.44
2022-11-10T05:28:09.073Z,7.44
2022-11-10T05:31:13.612Z,6.43
2022-11-10T05:34:18.548Z,7.17
2022-11-10T05:37:23.027Z,7.44
2022-11-10T05:40:27.525Z,7.20
2022-11-10T05:43:31.688Z,7.56
2022-11-10T05:46:36.027Z,6.52
2022-11-10T05:49:40.932Z,7.61
2022-11-10T05:52:50.360Z,7.60
2022-11-10T05:55:54.753Z,6.35
2022-11-10T05:58:58.986Z,7.66
2022-11-10T06:02:03.386Z,7.69
2022-11-10T06:05:07.882Z,7.69
2022-11-10T06:08:12.807Z,7.48
2022-11-10T06:11:17.491Z,7.22
2022-11-10T06:14:22.155Z,7.71
2022-11-10T06:17:26.734Z,7.71
2022-11-10T06:20:31.114Z,7.61
2022-11-10T06:23:35.287Z,6.37
2022-11-10T06:26:39.912Z,6.69
2022-11-10T06:29:44.416Z,7.64
2022-11-10T06:32:49.694Z,7.71
2022-11-10T06:35:54.247Z,7.61
2022-11-10T06:38:58.657Z,7.74
2022-11-10T06:42:03.051Z,6.48
2022-11-10T06:45:07.979Z,7.72
2022-11-10T06:48:16.454Z,7.27
2022-11-10T06:51:21.743Z,7.84
2022-11-10T06:54:25.928Z,7.84
2022-11-10T06:57:30.280Z,7.77
2022-11-10T07:00:35.563Z,7.22
2022-11-10T07:03:58.535Z,6.48
2022-11-10T07:07:11.144Z,7.81
2022-11-10T07:10:16.186Z,7.84
2022-11-10T07:13:23.850Z,7.35
2022-11-10T07:16:30.393Z,7.74
2022-11-10T07:19:35.055Z,6.63
2022-11-10T07:22:39.766Z,7.86
2022-11-10T07:25:45.456Z,8.00
2022-11-10T07:28:53.831Z,8.02
2022-11-10T07:31:58.898Z,7.86
2022-11-10T07:35:03.281Z,8.00
2022-11-10T07:38:17.013Z,7.84
2022-11-10T07:41:22.262Z,8.09
2022-11-10T07:44:27.913Z,6.78
2022-11-10T07:47:32.545Z,6.78
2022-11-10T07:50:37.219Z,8.12
2022-11-10T07:53:42.167Z,8.18
2022-11-10T07:56:47.707Z,8.23
2022-11-10T07:59:56.997Z,8.26
2022-11-10T08:03:10.397Z,8.23
2022-11-10T08:06:15.615Z,8.25
2022-11-10T08:09:20.033Z,8.32
2022-11-10T08:12:27.521Z,8.22
2022-11-10T08:15:34.627Z,7.82
2022-11-10T08:18:39.048Z,7.33
2022-11-10T08:21:43.619Z,8.42
2022-11-10T08:24:48.558Z,8.23
2022-11-10T08:28:08.124Z,8.49
2022-11-10T08:31:12.200Z,7.21
2022-11-10T08:34:16.774Z,7.75
2022-11-10T08:37:21.591Z,8.32
2022-11-10T08:40:29.090Z,7.61
2022-11-10T08:43:33.699Z,8.69
2022-11-10T08:46:38.275Z,8.74
2022-11-10T08:49:42.297Z,7.70
2022-11-10T08:52:46.798Z,8.85
2022-11-10T08:55:53.386Z,8.89
2022-11-10T08:58:57.577Z,8.93
2022-11-10T09:02:02.170Z,8.90
2022-11-10T09:05:07.921Z,8.96
2022-11-10T09:08:13.442Z,8.99
2022-11-10T09:11:18.313Z,8.80
2022-11-10T09:14:23.560Z,8.99
2022-11-10T09:17:28.902Z,9.04
2022-11-10T09:20:35.845Z,9.13
2022-11-10T09:23:41.356Z,9.12
2022-11-10T09:26:47.690Z,8.91
2022-11-10T09:29:52.111Z,7.97
2022-11-10T09:32:58.000Z,9.30
2022-11-10T09:36:02.915Z,8.01
2022-11-10T09:39:07.998Z,8.04
2022-11-10T09:42:41.939Z,8.19
2022-11-10T09:45:48.648Z,9.43
2022-11-10T09:49:36.071Z,9.39
2022-11-10T09:52:41.459Z,9.48
2022-11-10T09:55:51.005Z,8.24
2022-11-10T09:58:55.828Z,8.36
2022-11-10T10:02:15.682Z,9.63
2022-11-10T10:05:47.929Z,9.72
2022-11-10T10:08:55.480Z,9.78
2022-11-10T10:12:25.645Z,9.87
2022-11-10T10:15:45.259Z,9.15
2022-11-10T10:19:11.550Z,9.53
2022-11-10T10:22:32.971Z,10.15
2022-11-10T10:25:39.626Z,9.26
2022-11-10T10:28:46.398Z,9.17
2022-11-10T10:31:52.549Z,10.07
2022-11-10T10:34:57.813Z,9.50
2022-11-10T10:38:04.755Z,10.50
2022-11-10T10:41:29.992Z,9.51
2022-11-10T10:44:34.538Z,10.77
2022-11-10T10:47:39.785Z,10.61
2022-11-10T10:50:46.440Z,9.90
2022-11-10T10:53:50.932Z,10.05
2022-11-10T10:57:23.253Z,9.97
2022-11-10T11:00:29.414Z,11.23
2022-11-10T11:03:42.228Z,11.00
2022-11-10T11:07:19.058Z,10.94
2022-11-10T11:10:33.195Z,10.33
2022-11-10T11:13:38.417Z,10.33
2022-11-10T11:17:00.290Z,11.27
2022-11-10T11:20:13.274Z,10.76
2022-11-10T11:23:29.936Z,11.79
2022-11-10T11:26:47.802Z,11.89
2022-11-10T11:30:06.494Z,11.95
2022-11-10T11:33:36.836Z,12.02
2022-11-10T11:36:44.524Z,12.08
2022-11-10T11:40:15.439Z,12.17
2022-11-10T11:43:35.951Z,12.26
2022-11-10T11:46:49.695Z,12.30
2022-11-10T11:50:24.346Z,12.44
2022-11-10T11:54:05.571Z,12.53
2022-11-10T11:57:39.692Z,12.61
2022-11-10T12:00:50.906Z,12.65
2022-11-10T12:04:10.792Z,12.73
2022-11-10T12:07:24.358Z,12.53
2022-11-10T12:10:52.609Z,12.74
2022-11-10T12:16:58.502Z,12.00
2022-11-10T12:20:28.067Z,12.73
2022-11-10T12:24:06.008Z,12.71
2022-11-10T12:27:28.879Z,12.71
2022-11-10T12:30:36.686Z,12.70
2022-11-10T12:33:50.874Z,12.13
2022-11-10T12:36:58.228Z,10.75
2022-11-10T12:40:12.831Z,12.73
2022-11-10T12:43:25.320Z,12.73
2022-11-10T12:46:30.135Z,12.74
2022-11-10T12:49:39.041Z,12.73
2022-11-10T12:53:15.948Z,12.74
2022-11-10T12:56:31.906Z,12.74
2022-11-10T12:59:39.813Z,12.73
2022-11-10T13:02:46.759Z,12.43
2022-11-10T13:05:57.742Z,12.19
2022-11-10T13:09:03.035Z,12.46
2022-11-10T13:12:10.232Z,12.67
2022-11-10T13:15:39.640Z,12.66
2022-11-10T13:18:52.752Z,12.64
2022-11-10T13:22:00.403Z,12.60
2022-11-10T13:25:49.529Z,12.53
2022-11-10T13:29:02.845Z,12.25
2022-11-10T13:32:07.557Z,12.44
2022-11-10T13:35:30.214Z,12.42
2022-11-10T13:38:37.040Z,12.37
2022-11-10T13:42:06.258Z,12.06
2022-11-10T13:45:37.078Z,12.30
2022-11-10T13:48:47.230Z,12.28
2022-11-10T13:52:10.979Z,12.26
2022-11-10T13:55:27.308Z,12.25
2022-11-10T13:58:34.581Z,12.02
2022-11-10T14:01:41.137Z,12.24
2022-11-10T14:04:46.585Z,11.86
2022-11-10T14:07:52.626Z,12.09
2022-11-10T14:11:03.764Z,11.97
2022-11-10T14:14:24.571Z,11.00
2022-11-10T14:17:34.002Z,11.14
2022-11-10T14:20:44.571Z,12.10
2022-11-10T14:23:54.055Z,10.80
2022-11-10T14:27:05.110Z,11.60
2022-11-10T14:30:21.511Z,11.98
2022-11-10T14:33:27.533Z,11.94
2022-11-10T14:36:32.660Z,11.66
2022-11-10T14:39:37.271Z,11.80
2022-11-10T14:42:41.792Z,11.84
2022-11-10T14:45:51.923Z,11.74
2022-11-10T14:48:58.730Z,11.28
2022-11-10T14:52:03.569Z,10.72
2022-11-10T14:55:20.473Z,11.36
2022-11-10T14:58:31.148Z,11.51
2022-11-10T15:01:39.054Z,10.43
2022-11-10T15:04:46.226Z,10.82
2022-11-10T15:07:56.551Z,11.24
2022-11-10T15:11:01.076Z,10.69
2022-11-10T15:14:05.770Z,11.23
2022-11-10T15:17:14.627Z,11.22
2022-11-10T15:20:29.605Z,10.45
2022-11-10T15:23:37.799Z,11.28
2022-11-10T15:26:42.815Z,10.30
2022-11-10T15:29:48.010Z,10.78
2022-11-10T15:32:54.820Z,10.87
2022-11-10T15:36:25.030Z,10.01
2022-11-10T15:39:30.397Z,11.10
2022-11-10T15:42:35.133Z,10.10
2022-11-10T15:45:40.148Z,10.08
2022-11-10T15:48:48.067Z,11.19
2022-11-10T15:51:57.430Z,10.32
2022-11-10T15:55:02.549Z,10.59
2022-11-10T15:58:19.430Z,11.20
2022-11-10T16:01:24.976Z,10.10
2022-11-10T16:04:29.627Z,11.10
2022-11-10T16:07:34.782Z,9.89
2022-11-10T16:10:41.511Z,10.57
2022-11-10T16:13:46.836Z,10.86
2022-11-10T16:16:51.465Z,9.98
2022-11-10T16:19:55.740Z,9.99
2022-11-10T16:23:00.806Z,10.15
2022-11-10T16:26:07.559Z,9.30
2022-11-10T16:29:15.620Z,10.87
2022-11-10T16:32:20.213Z,9.65
2022-11-10T16:35:25.971Z,10.86
2022-11-10T16:38:32.403Z,10.73
2022-11-10T16:41:37.457Z,10.78
2022-11-10T16:44:42.778Z,9.54
2022-11-10T16:47:50.571Z,10.76
2022-11-10T16:50:58.072Z,10.69
2022-11-10T16:54:02.565Z,10.77
2022-11-10T16:57:12.734Z,9.83
2022-11-10T17:00:18.214Z,10.85
2022-11-10T17:03:35.594Z,10.85
2022-11-10T17:06:40.614Z,10.31
2022-11-10T17:09:45.271Z,10.73
2022-11-10T17:12:49.981Z,10.84
2022-11-10T17:16:05.106Z,9.80
2022-11-10T17:19:17.593Z,10.91
2022-11-10T17:22:23.819Z,11.01
2022-11-10T17:25:32.500Z,10.04
2022-11-10T17:28:37.290Z,11.05
2022-11-10T17:31:42.044Z,10.09
2022-11-10T17:34:46.619Z,11.09
2022-11-10T17:37:55.063Z,11.11
2022-11-10T17:40:59.821Z,11.10
2022-11-10T17:44:04.713Z,10.78
2022-11-10T17:47:09.397Z,11.12
2022-11-10T17:50:15.687Z,10.10
2022-11-10T17:53:23.890Z,10.78
2022-11-10T17:56:29.846Z,10.82
2022-11-10T17:59:34.636Z,9.71
2022-11-10T18:02:39.047Z,10.86
2022-11-10T18:05:44.413Z,10.79
2022-11-10T18:08:50.245Z,10.82
2022-11-10T18:11:56.093Z,10.82
2022-11-10T18:15:01.147Z,10.83
2022-11-10T18:18:06.842Z,10.80
2022-11-10T18:21:12.113Z,10.78
2022-11-10T18:24:16.328Z,10.77
2022-11-10T18:27:21.167Z,10.14
2022-11-10T18:30:25.566Z,10.73
2022-11-10T18:33:30.079Z,10.67
2022-11-10T18:36:34.325Z,9.47
2022-11-10T18:39:38.838Z,10.60
2022-11-10T18:42:43.109Z,9.49
2022-11-10T18:45:51.797Z,10.49
2022-11-10T18:48:56.278Z,9.20
2022-11-10T18:52:00.801Z,9.30
2022-11-10T18:55:06.396Z,10.25
2022-11-10T18:58:11.029Z,9.91
2022-11-10T19:01:16.754Z,10.61
2022-11-10T19:04:21.071Z,9.76
2022-11-10T19:07:25.545Z,10.55
2022-11-10T19:10:29.869Z,9.46
2022-11-10T19:13:34.426Z,9.68
2022-11-10T19:16:39.883Z,10.42
2022-11-10T19:19:46.239Z,10.34
2022-11-10T19:22:51.157Z,10.36
2022-11-10T19:26:25.417Z,10.32
2022-11-10T19:29:31.643Z,10.30
2022-11-10T19:32:37.720Z,10.12
2022-11-10T19:35:43.500Z,9.39
2022-11-10T19:38:48.426Z,10.27
2022-11-10T19:41:54.013Z,10.37
2022-11-10T19:44:58.589Z,10.35
2022-11-10T19:48:08.348Z,10.34
2022-11-10T19:51:17.801Z,10.41
2022-11-10T19:54:23.406Z,10.18
2022-11-10T19:57:28.981Z,10.45
2022-11-10T20:00:34.271Z,10.39
2022-11-10T20:03:40.247Z,10.30
2022-11-10T20:06:45.830Z,10.52
2022-11-10T20:09:51.595Z,10.53
2022-11-10T20:12:56.899Z,10.33
2022-11-10T20:16:07.309Z,10.51
2022-11-10T20:19:13.159Z,10.44
2022-11-10T20:22:19.067Z,10.18
2022-11-10T20:25:24.321Z,10.25
2022-11-10T20:28:30.553Z,10.28
2022-11-10T20:31:37.027Z,10.11
2022-11-10T20:34:41.979Z,10.15
2022-11-10T20:37:47.131Z,10.22
2022-11-10T20:41:05.783Z,10.21
2022-11-10T20:44:11.027Z,10.20
2022-11-10T20:47:15.936Z,10.18
2022-11-10T20:50:24.331Z,10.26
2022-11-10T20:53:29.719Z,9.86
2022-11-10T20:56:34.085Z,10.32
2022-11-10T20:59:38.621Z,10.35
2022-11-10T21:02:43.472Z,10.38
2022-11-10T21:05:56.193Z,10.40
2022-11-10T21:09:03.416Z,10.44
2022-11-10T21:12:31.399Z,9.36
2022-11-10T21:15:40.476Z,9.13
2022-11-10T21:18:44.752Z,10.18
2022-11-10T21:21:51.144Z,10.39
2022-11-10T21:24:58.391Z,10.40
2022-11-10T21:28:05.571Z,9.31
2022-11-10T21:31:13.364Z,10.43
2022-11-10T21:34:21.036Z,10.52
2022-11-10T21:37:26.081Z,10.49
2022-11-10T21:40:32.236Z,10.47
2022-11-10T21:43:40.303Z,10.49
2022-11-10T21:46:46.641Z,10.21
2022-11-10T21:49:51.691Z,10.22
2022-11-10T21:52:56.983Z,9.34
2022-11-10T21:56:07.984Z,9.89
2022-11-10T21:59:14.578Z,10.47
2022-11-10T22:02:19.850Z,10.13
2022-11-10T22:05:24.582Z,10.46
2022-11-10T22:08:29.438Z,10.03
2022-11-10T22:11:52.734Z,10.01
2022-11-10T22:15:15.677Z,10.45
2022-11-10T22:18:38.246Z,10.41
2022-11-10T22:21:44.486Z,10.20
2022-11-10T22:24:48.809Z,10.49
2022-11-10T22:27:53.264Z,9.43
2022-11-10T22:30:58.065Z,10.36
2022-11-10T22:34:02.943Z,10.42
2022-11-10T22:37:07.607Z,9.35
2022-11-10T22:40:31.083Z,10.34
2022-11-10T22:43:54.155Z,10.36
2022-11-10T22:46:58.957Z,10.44
2022-11-10T22:50:04.090Z,10.39
2022-11-10T22:53:11.013Z,10.46
2022-11-10T22:56:16.386Z,10.46
2022-11-10T22:59:21.314Z,9.55
2022-11-10T23:02:31.994Z,10.44
2022-11-10T23:05:37.048Z,10.04
2022-11-10T23:08:41.364Z,9.55
2022-11-10T23:11:45.849Z,9.54
2022-11-10T23:14:50.400Z,9.31
2022-11-10T23:17:55.088Z,9.40
2022-11-10T23:21:04.577Z,10.21
2022-11-10T23:24:08.998Z,10.42
2022-11-10T23:27:18.292Z,10.48
2022-11-10T23:30:26.941Z,10.47
2022-11-10T23:33:42.498Z,10.44
2022-11-10T23:36:53.575Z,10.47
2022-11-10T23:39:58.469Z,9.39
2022-11-10T23:43:02.759Z,9.37
2022-11-10T23:46:08.177Z,10.00
2022-11-10T23:49:12.774Z,9.33
2022-11-10T23:52:17.022Z,10.32
2022-11-10T23:55:21.370Z,10.43
2022-11-10T23:58:26.112Z,10.42
